sensor_id;sensor_type;location;lat;lon;timestamp;temperature;humidity
75719;DHT22;64340;48.534;-3.036;2023-07-31T00:02:05;20.80;70.60
75719;DHT22;64340;48.534;-3.036;2023-07-31T00:04:31;20.80;70.60
75719;DHT22;64340;48.534;-3.036;2023-07-31T00:06:57;20.80;70.60
75719;DHT22;64340;48.534;-3.036;2023-07-31T00:09:22;20.80;70.70
75719;DHT22;64340;48.534;-3.036;2023-07-31T00:11:48;20.80;70.70
75719;DHT22;64340;48.534;-3.036;2023-07-31T00:14:14;20.80;70.70
75719;DHT22;64340;48.534;-3.036;2023-07-31T00:16:39;20.70;70.90
75719;DHT22;64340;48.534;-3.036;2023-07-31T00:19:05;20.80;70.70
75719;DHT22;64340;48.534;-3.036;2023-07-31T00:21:31;20.70;70.70
75719;DHT22;64340;48.534;-3.036;2023-07-31T00:23:56;20.70;70.70
75719;DHT22;64340;48.534;-3.036;2023-07-31T00:26:22;20.70;70.70
75719;DHT22;64340;48.534;-3.036;2023-07-31T00:28:48;20.70;70.80
75719;DHT22;64340;48.534;-3.036;2023-07-31T00:31:13;20.70;70.70
75719;DHT22;64340;48.534;-3.036;2023-07-31T00:33:40;20.70;70.70
75719;DHT22;64340;48.534;-3.036;2023-07-31T00:36:05;20.70;70.60
75719;DHT22;64340;48.534;-3.036;2023-07-31T00:38:31;20.70;70.70
75719;DHT22;64340;48.534;-3.036;2023-07-31T00:40:57;20.70;70.60
75719;DHT22;64340;48.534;-3.036;2023-07-31T00:43:22;20.70;70.60
75719;DHT22;64340;48.534;-3.036;2023-07-31T00:45:48;20.70;70.60
75719;DHT22;64340;48.534;-3.036;2023-07-31T00:48:14;20.70;70.70
75719;DHT22;64340;48.534;-3.036;2023-07-31T00:50:40;20.70;70.60
75719;DHT22;64340;48.534;-3.036;2023-07-31T00:53:06;20.70;70.70
75719;DHT22;64340;48.534;-3.036;2023-07-31T00:55:32;20.70;70.70
75719;DHT22;64340;48.534;-3.036;2023-07-31T00:57:58;20.70;70.70
75719;DHT22;64340;48.534;-3.036;2023-07-31T01:00:24;20.70;70.70
75719;DHT22;64340;48.534;-3.036;2023-07-31T01:02:50;20.70;70.70
75719;DHT22;64340;48.534;-3.036;2023-07-31T01:05:16;20.60;70.70
75719;DHT22;64340;48.534;-3.036;2023-07-31T01:07:45;20.70;70.70
75719;DHT22;64340;48.534;-3.036;2023-07-31T01:10:21;20.60;70.70
75719;DHT22;64340;48.534;-3.036;2023-07-31T01:12:50;20.60;70.70
75719;DHT22;64340;48.534;-3.036;2023-07-31T01:15:16;20.60;70.70
75719;DHT22;64340;48.534;-3.036;2023-07-31T01:17:43;20.60;70.70
75719;DHT22;64340;48.534;-3.036;2023-07-31T01:27:59;20.60;70.70
75719;DHT22;64340;48.534;-3.036;2023-07-31T01:30:28;20.60;70.70
75719;DHT22;64340;48.534;-3.036;2023-07-31T01:32:59;20.60;70.70
75719;DHT22;64340;48.534;-3.036;2023-07-31T01:35:24;20.60;70.80
75719;DHT22;64340;48.534;-3.036;2023-07-31T01:37:52;20.50;70.80
75719;DHT22;64340;48.534;-3.036;2023-07-31T01:40:18;20.60;70.80
75719;DHT22;64340;48.534;-3.036;2023-07-31T01:42:44;20.60;70.70
75719;DHT22;64340;48.534;-3.036;2023-07-31T01:45:09;20.60;70.70
75719;DHT22;64340;48.534;-3.036;2023-07-31T01:47:36;20.60;70.80
75719;DHT22;64340;48.534;-3.036;2023-07-31T01:50:03;20.60;70.70
75719;DHT22;64340;48.534;-3.036;2023-07-31T01:52:28;20.60;70.70
75719;DHT22;64340;48.534;-3.036;2023-07-31T01:54:55;20.60;70.80
75719;DHT22;64340;48.534;-3.036;2023-07-31T01:57:22;20.60;70.70
75719;DHT22;64340;48.534;-3.036;2023-07-31T01:59:48;20.50;70.80
75719;DHT22;64340;48.534;-3.036;2023-07-31T02:02:21;20.50;70.80
75719;DHT22;64340;48.534;-3.036;2023-07-31T02:04:48;20.50;70.80
75719;DHT22;64340;48.534;-3.036;2023-07-31T02:07:14;20.50;70.80
75719;DHT22;64340;48.534;-3.036;2023-07-31T02:09:40;20.50;70.80
75719;DHT22;64340;48.534;-3.036;2023-07-31T02:12:05;20.50;70.90
75719;DHT22;64340;48.534;-3.036;2023-07-31T02:14:34;20.50;70.80
75719;DHT22;64340;48.534;-3.036;2023-07-31T02:16:59;20.50;70.80
75719;DHT22;64340;48.534;-3.036;2023-07-31T02:19:25;20.50;70.90
75719;DHT22;64340;48.534;-3.036;2023-07-31T02:21:51;20.50;70.80
75719;DHT22;64340;48.534;-3.036;2023-07-31T02:24:16;20.50;70.90
75719;DHT22;64340;48.534;-3.036;2023-07-31T02:26:42;20.50;71.00
75719;DHT22;64340;48.534;-3.036;2023-07-31T02:29:08;20.50;70.90
75719;DHT22;64340;48.534;-3.036;2023-07-31T02:31:34;20.50;70.90
75719;DHT22;64340;48.534;-3.036;2023-07-31T02:33:59;20.50;70.90
75719;DHT22;64340;48.534;-3.036;2023-07-31T02:36:25;20.50;71.00
75719;DHT22;64340;48.534;-3.036;2023-07-31T02:38:51;20.50;70.90
75719;DHT22;64340;48.534;-3.036;2023-07-31T02:41:18;20.50;70.90
75719;DHT22;64340;48.534;-3.036;2023-07-31T02:43:44;20.50;71.00
75719;DHT22;64340;48.534;-3.036;2023-07-31T02:46:10;20.50;71.00
75719;DHT22;64340;48.534;-3.036;2023-07-31T02:48:35;20.50;71.10
75719;DHT22;64340;48.534;-3.036;2023-07-31T02:51:01;20.50;71.10
75719;DHT22;64340;48.534;-3.036;2023-07-31T02:53:27;20.50;70.90
75719;DHT22;64340;48.534;-3.036;2023-07-31T02:55:53;20.50;70.90
75719;DHT22;64340;48.534;-3.036;2023-07-31T02:58:19;20.50;70.90
75719;DHT22;64340;48.534;-3.036;2023-07-31T03:00:45;20.50;70.90
75719;DHT22;64340;48.534;-3.036;2023-07-31T03:03:11;20.50;71.00
75719;DHT22;64340;48.534;-3.036;2023-07-31T03:05:37;20.50;71.00
75719;DHT22;64340;48.534;-3.036;2023-07-31T03:08:03;20.50;71.00
75719;DHT22;64340;48.534;-3.036;2023-07-31T03:10:29;20.50;71.00
75719;DHT22;64340;48.534;-3.036;2023-07-31T03:12:55;20.50;71.00
75719;DHT22;64340;48.534;-3.036;2023-07-31T03:15:20;20.50;71.00
75719;DHT22;64340;48.534;-3.036;2023-07-31T03:17:46;20.50;71.10
75719;DHT22;64340;48.534;-3.036;2023-07-31T03:20:12;20.50;71.10
75719;DHT22;64340;48.534;-3.036;2023-07-31T03:22:38;20.40;71.10
75719;DHT22;64340;48.534;-3.036;2023-07-31T03:25:04;20.50;71.10
75719;DHT22;64340;48.534;-3.036;2023-07-31T03:27:31;20.50;71.10
75719;DHT22;64340;48.534;-3.036;2023-07-31T03:29:57;20.50;71.10
75719;DHT22;64340;48.534;-3.036;2023-07-31T03:32:22;20.40;71.10
75719;DHT22;64340;48.534;-3.036;2023-07-31T03:34:49;20.50;71.10
75719;DHT22;64340;48.534;-3.036;2023-07-31T03:37:14;20.50;71.10
75719;DHT22;64340;48.534;-3.036;2023-07-31T03:39:40;20.40;71.10
75719;DHT22;64340;48.534;-3.036;2023-07-31T03:42:06;20.40;71.10
75719;DHT22;64340;48.534;-3.036;2023-07-31T03:44:31;20.40;71.20
75719;DHT22;64340;48.534;-3.036;2023-07-31T03:46:57;20.40;71.10
75719;DHT22;64340;48.534;-3.036;2023-07-31T03:49:23;20.40;71.20
75719;DHT22;64340;48.534;-3.036;2023-07-31T03:51:49;20.40;71.20
75719;DHT22;64340;48.534;-3.036;2023-07-31T03:54:14;20.40;71.20
75719;DHT22;64340;48.534;-3.036;2023-07-31T03:56:40;20.40;71.20
75719;DHT22;64340;48.534;-3.036;2023-07-31T03:59:06;20.30;71.20
75719;DHT22;64340;48.534;-3.036;2023-07-31T04:01:31;20.30;71.30
75719;DHT22;64340;48.534;-3.036;2023-07-31T04:03:57;20.30;71.20
75719;DHT22;64340;48.534;-3.036;2023-07-31T04:06:23;20.40;71.20
75719;DHT22;64340;48.534;-3.036;2023-07-31T04:08:49;20.30;71.20
75719;DHT22;64340;48.534;-3.036;2023-07-31T04:11:14;20.40;71.20
75719;DHT22;64340;48.534;-3.036;2023-07-31T04:13:40;20.40;71.20
75719;DHT22;64340;48.534;-3.036;2023-07-31T04:16:06;20.40;71.20
75719;DHT22;64340;48.534;-3.036;2023-07-31T04:18:31;20.40;71.20
75719;DHT22;64340;48.534;-3.036;2023-07-31T04:20:57;20.40;71.20
75719;DHT22;64340;48.534;-3.036;2023-07-31T04:23:29;20.30;71.30
75719;DHT22;64340;48.534;-3.036;2023-07-31T04:25:55;20.30;71.30
75719;DHT22;64340;48.534;-3.036;2023-07-31T04:28:22;20.30;71.30
75719;DHT22;64340;48.534;-3.036;2023-07-31T04:30:47;20.40;71.30
75719;DHT22;64340;48.534;-3.036;2023-07-31T04:33:13;20.30;71.40
75719;DHT22;64340;48.534;-3.036;2023-07-31T04:35:39;20.30;71.30
75719;DHT22;64340;48.534;-3.036;2023-07-31T04:38:05;20.30;71.40
75719;DHT22;64340;48.534;-3.036;2023-07-31T04:40:31;20.30;71.40
75719;DHT22;64340;48.534;-3.036;2023-07-31T04:42:57;20.30;71.40
75719;DHT22;64340;48.534;-3.036;2023-07-31T04:45:23;20.30;71.30
75719;DHT22;64340;48.534;-3.036;2023-07-31T04:47:49;20.30;71.40
75719;DHT22;64340;48.534;-3.036;2023-07-31T04:50:14;20.30;71.40
75719;DHT22;64340;48.534;-3.036;2023-07-31T04:52:40;20.30;71.40
75719;DHT22;64340;48.534;-3.036;2023-07-31T04:55:06;20.30;71.40
75719;DHT22;64340;48.534;-3.036;2023-07-31T04:57:32;20.30;71.40
75719;DHT22;64340;48.534;-3.036;2023-07-31T04:59:58;20.30;71.40
75719;DHT22;64340;48.534;-3.036;2023-07-31T05:02:23;20.30;71.40
75719;DHT22;64340;48.534;-3.036;2023-07-31T05:04:49;20.30;71.40
75719;DHT22;64340;48.534;-3.036;2023-07-31T05:07:16;20.30;71.40
75719;DHT22;64340;48.534;-3.036;2023-07-31T05:09:47;20.30;71.40
75719;DHT22;64340;48.534;-3.036;2023-07-31T05:12:15;20.30;71.50
75719;DHT22;64340;48.534;-3.036;2023-07-31T05:14:52;20.30;71.40
75719;DHT22;64340;48.534;-3.036;2023-07-31T05:17:21;20.30;71.40
75719;DHT22;64340;48.534;-3.036;2023-07-31T05:19:46;20.30;71.40
75719;DHT22;64340;48.534;-3.036;2023-07-31T05:22:12;20.30;71.40
75719;DHT22;64340;48.534;-3.036;2023-07-31T05:24:38;20.30;71.10
75719;DHT22;64340;48.534;-3.036;2023-07-31T05:27:18;20.30;71.40
75719;DHT22;64340;48.534;-3.036;2023-07-31T05:29:53;20.50;71.20
75719;DHT22;64340;48.534;-3.036;2023-07-31T05:32:27;20.50;71.30
75719;DHT22;64340;48.534;-3.036;2023-07-31T05:35:00;20.50;71.30
75719;DHT22;64340;48.534;-3.036;2023-07-31T05:37:26;20.50;71.50
75719;DHT22;64340;48.534;-3.036;2023-07-31T05:39:54;20.40;71.80
75719;DHT22;64340;48.534;-3.036;2023-07-31T05:42:41;20.50;71.90
75719;DHT22;64340;48.534;-3.036;2023-07-31T05:45:12;20.50;71.80
75719;DHT22;64340;48.534;-3.036;2023-07-31T05:47:41;20.50;71.70
75719;DHT22;64340;48.534;-3.036;2023-07-31T05:50:10;20.50;72.00
75719;DHT22;64340;48.534;-3.036;2023-07-31T05:52:41;20.50;71.80
75719;DHT22;64340;48.534;-3.036;2023-07-31T05:55:08;20.50;71.90
75719;DHT22;64340;48.534;-3.036;2023-07-31T05:57:45;20.50;72.00
75719;DHT22;64340;48.534;-3.036;2023-07-31T06:00:12;20.30;72.20
75719;DHT22;64340;48.534;-3.036;2023-07-31T06:02:38;20.30;72.80
75719;DHT22;64340;48.534;-3.036;2023-07-31T06:05:04;20.30;72.70
75719;DHT22;64340;48.534;-3.036;2023-07-31T06:07:34;20.30;72.80
75719;DHT22;64340;48.534;-3.036;2023-07-31T06:09:59;20.40;73.00
75719;DHT22;64340;48.534;-3.036;2023-07-31T06:12:31;20.40;73.20
75719;DHT22;64340;48.534;-3.036;2023-07-31T06:14:57;20.40;71.90
75719;DHT22;64340;48.534;-3.036;2023-07-31T06:17:23;20.30;73.10
75719;DHT22;64340;48.534;-3.036;2023-07-31T06:19:50;20.40;73.50
75719;DHT22;64340;48.534;-3.036;2023-07-31T06:22:16;20.50;73.10
75719;DHT22;64340;48.534;-3.036;2023-07-31T06:24:43;20.50;73.10
75719;DHT22;64340;48.534;-3.036;2023-07-31T06:27:10;20.50;73.10
75719;DHT22;64340;48.534;-3.036;2023-07-31T06:29:36;20.50;73.00
75719;DHT22;64340;48.534;-3.036;2023-07-31T06:32:02;20.50;73.00
75719;DHT22;64340;48.534;-3.036;2023-07-31T06:34:29;20.50;73.10
75719;DHT22;64340;48.534;-3.036;2023-07-31T06:36:58;20.50;73.20
75719;DHT22;64340;48.534;-3.036;2023-07-31T06:39:24;20.50;73.20
75719;DHT22;64340;48.534;-3.036;2023-07-31T06:41:52;20.50;73.20
75719;DHT22;64340;48.534;-3.036;2023-07-31T06:44:21;20.50;73.70
75719;DHT22;64340;48.534;-3.036;2023-07-31T06:46:46;20.60;73.40
75719;DHT22;64340;48.534;-3.036;2023-07-31T06:49:12;20.70;73.00
75719;DHT22;64340;48.534;-3.036;2023-07-31T06:51:40;20.70;72.80
75719;DHT22;64340;48.534;-3.036;2023-07-31T06:54:09;20.70;72.60
75719;DHT22;64340;48.534;-3.036;2023-07-31T06:56:43;20.70;72.60
75719;DHT22;64340;48.534;-3.036;2023-07-31T06:59:24;20.70;72.60
75719;DHT22;64340;48.534;-3.036;2023-07-31T07:01:50;20.70;72.60
75719;DHT22;64340;48.534;-3.036;2023-07-31T07:04:15;20.70;72.50
75719;DHT22;64340;48.534;-3.036;2023-07-31T07:06:42;20.70;72.40
75719;DHT22;64340;48.534;-3.036;2023-07-31T07:09:07;20.70;72.40
75719;DHT22;64340;48.534;-3.036;2023-07-31T07:11:33;20.70;72.50
75719;DHT22;64340;48.534;-3.036;2023-07-31T07:13:59;20.70;72.60
75719;DHT22;64340;48.534;-3.036;2023-07-31T07:16:28;20.70;72.50
75719;DHT22;64340;48.534;-3.036;2023-07-31T07:18:54;20.80;72.50
75719;DHT22;64340;48.534;-3.036;2023-07-31T07:21:20;20.80;72.40
75719;DHT22;64340;48.534;-3.036;2023-07-31T07:23:45;20.80;72.30
75719;DHT22;64340;48.534;-3.036;2023-07-31T07:26:15;20.80;72.20
75719;DHT22;64340;48.534;-3.036;2023-07-31T07:28:48;20.80;72.10
75719;DHT22;64340;48.534;-3.036;2023-07-31T07:31:14;20.90;72.30
75719;DHT22;64340;48.534;-3.036;2023-07-31T07:33:41;20.90;72.10
75719;DHT22;64340;48.534;-3.036;2023-07-31T07:36:07;20.90;72.00
75719;DHT22;64340;48.534;-3.036;2023-07-31T07:38:38;20.90;72.00
75719;DHT22;64340;48.534;-3.036;2023-07-31T07:41:08;20.90;71.90
75719;DHT22;64340;48.534;-3.036;2023-07-31T07:43:37;21.00;72.00
75719;DHT22;64340;48.534;-3.036;2023-07-31T07:46:06;21.00;72.00
75719;DHT22;64340;48.534;-3.036;2023-07-31T07:48:35;20.90;72.00
75719;DHT22;64340;48.534;-3.036;2023-07-31T07:51:04;20.90;72.10
75719;DHT22;64340;48.534;-3.036;2023-07-31T07:53:32;20.90;72.00
75719;DHT22;64340;48.534;-3.036;2023-07-31T07:55:58;21.00;71.90
75719;DHT22;64340;48.534;-3.036;2023-07-31T07:58:24;21.00;71.80
75719;DHT22;64340;48.534;-3.036;2023-07-31T08:00:53;21.00;71.70
75719;DHT22;64340;48.534;-3.036;2023-07-31T08:03:19;21.00;71.90
75719;DHT22;64340;48.534;-3.036;2023-07-31T08:05:46;20.90;72.10
75719;DHT22;64340;48.534;-3.036;2023-07-31T08:08:14;20.90;72.20
75719;DHT22;64340;48.534;-3.036;2023-07-31T08:10:41;20.90;72.20
75719;DHT22;64340;48.534;-3.036;2023-07-31T08:13:09;20.90;72.20
75719;DHT22;64340;48.534;-3.036;2023-07-31T08:15:35;20.90;72.10
75719;DHT22;64340;48.534;-3.036;2023-07-31T08:18:01;21.00;71.90
75719;DHT22;64340;48.534;-3.036;2023-07-31T08:20:29;21.00;71.70
75719;DHT22;64340;48.534;-3.036;2023-07-31T08:22:56;21.00;71.80
75719;DHT22;64340;48.534;-3.036;2023-07-31T08:25:23;21.00;72.10
75719;DHT22;64340;48.534;-3.036;2023-07-31T08:27:51;21.00;72.20
75719;DHT22;64340;48.534;-3.036;2023-07-31T08:30:18;21.00;72.20
75719;DHT22;64340;48.534;-3.036;2023-07-31T08:32:44;21.00;72.30
75719;DHT22;64340;48.534;-3.036;2023-07-31T08:35:10;20.90;71.90
75719;DHT22;64340;48.534;-3.036;2023-07-31T08:37:37;20.90;71.70
75719;DHT22;64340;48.534;-3.036;2023-07-31T08:40:03;21.00;71.80
75719;DHT22;64340;48.534;-3.036;2023-07-31T08:42:29;21.00;72.60
75719;DHT22;64340;48.534;-3.036;2023-07-31T08:44:59;21.00;72.60
75719;DHT22;64340;48.534;-3.036;2023-07-31T08:47:25;21.00;72.10
75719;DHT22;64340;48.534;-3.036;2023-07-31T08:49:57;21.10;72.30
75719;DHT22;64340;48.534;-3.036;2023-07-31T08:52:24;21.10;72.10
75719;DHT22;64340;48.534;-3.036;2023-07-31T08:54:50;21.10;72.30
75719;DHT22;64340;48.534;-3.036;2023-07-31T08:57:16;21.10;71.80
75719;DHT22;64340;48.534;-3.036;2023-07-31T08:59:42;21.10;72.20
75719;DHT22;64340;48.534;-3.036;2023-07-31T09:02:09;21.20;72.70
75719;DHT22;64340;48.534;-3.036;2023-07-31T09:04:35;21.10;73.00
75719;DHT22;64340;48.534;-3.036;2023-07-31T09:07:02;21.10;73.20
75719;DHT22;64340;48.534;-3.036;2023-07-31T09:09:30;21.10;73.00
75719;DHT22;64340;48.534;-3.036;2023-07-31T09:11:59;21.20;72.90
75719;DHT22;64340;48.534;-3.036;2023-07-31T09:14:25;21.10;72.90
75719;DHT22;64340;48.534;-3.036;2023-07-31T09:16:52;21.20;72.70
75719;DHT22;64340;48.534;-3.036;2023-07-31T09:19:33;21.20;73.40
75719;DHT22;64340;48.534;-3.036;2023-07-31T09:22:01;21.30;73.70
75719;DHT22;64340;48.534;-3.036;2023-07-31T09:24:28;21.30;73.60
75719;DHT22;64340;48.534;-3.036;2023-07-31T09:26:55;21.20;72.90
75719;DHT22;64340;48.534;-3.036;2023-07-31T09:29:22;21.20;73.80
75719;DHT22;64340;48.534;-3.036;2023-07-31T09:31:48;21.30;73.90
75719;DHT22;64340;48.534;-3.036;2023-07-31T09:34:14;21.10;74.00
75719;DHT22;64340;48.534;-3.036;2023-07-31T09:39:09;21.30;74.40
75719;DHT22;64340;48.534;-3.036;2023-07-31T09:41:39;21.30;75.10
75719;DHT22;64340;48.534;-3.036;2023-07-31T09:44:17;21.30;75.10
75719;DHT22;64340;48.534;-3.036;2023-07-31T09:46:45;21.30;75.30
75719;DHT22;64340;48.534;-3.036;2023-07-31T09:49:11;21.30;75.30
75719;DHT22;64340;48.534;-3.036;2023-07-31T09:51:38;21.20;75.10
75719;DHT22;64340;48.534;-3.036;2023-07-31T09:54:13;21.30;73.50
75719;DHT22;64340;48.534;-3.036;2023-07-31T09:56:44;21.30;76.60
75719;DHT22;64340;48.534;-3.036;2023-07-31T09:59:15;21.40;76.30
75719;DHT22;64340;48.534;-3.036;2023-07-31T10:01:45;21.30;77.00
75719;DHT22;64340;48.534;-3.036;2023-07-31T10:04:12;21.40;76.50
75719;DHT22;64340;48.534;-3.036;2023-07-31T10:06:38;21.50;74.00
75719;DHT22;64340;48.534;-3.036;2023-07-31T10:09:08;21.50;73.60
75719;DHT22;64340;48.534;-3.036;2023-07-31T10:11:43;21.60;74.60
75719;DHT22;64340;48.534;-3.036;2023-07-31T10:14:11;21.50;76.10
75719;DHT22;64340;48.534;-3.036;2023-07-31T10:16:37;21.60;76.20
75719;DHT22;64340;48.534;-3.036;2023-07-31T10:19:06;21.60;76.10
75719;DHT22;64340;48.534;-3.036;2023-07-31T10:21:35;21.70;76.20
75719;DHT22;64340;48.534;-3.036;2023-07-31T10:24:05;21.70;76.20
75719;DHT22;64340;48.534;-3.036;2023-07-31T10:26:33;21.70;76.30
75719;DHT22;64340;48.534;-3.036;2023-07-31T10:29:01;21.70;75.50
75719;DHT22;64340;48.534;-3.036;2023-07-31T10:31:27;21.80;75.10
75719;DHT22;64340;48.534;-3.036;2023-07-31T10:33:55;21.80;75.30
75719;DHT22;64340;48.534;-3.036;2023-07-31T10:36:22;21.90;75.40
75719;DHT22;64340;48.534;-3.036;2023-07-31T10:38:51;21.90;75.40
75719;DHT22;64340;48.534;-3.036;2023-07-31T10:41:16;21.80;73.50
75719;DHT22;64340;48.534;-3.036;2023-07-31T10:43:45;21.90;74.00
75719;DHT22;64340;48.534;-3.036;2023-07-31T10:46:12;21.90;75.00
75719;DHT22;64340;48.534;-3.036;2023-07-31T10:48:40;21.90;75.60
75719;DHT22;64340;48.534;-3.036;2023-07-31T10:51:07;21.90;75.30
75719;DHT22;64340;48.534;-3.036;2023-07-31T10:53:35;21.90;75.40
75719;DHT22;64340;48.534;-3.036;2023-07-31T10:56:07;21.90;75.40
75719;DHT22;64340;48.534;-3.036;2023-07-31T10:58:44;21.90;75.00
75719;DHT22;64340;48.534;-3.036;2023-07-31T11:01:11;21.90;75.10
75719;DHT22;64340;48.534;-3.036;2023-07-31T11:03:48;21.90;75.10
75719;DHT22;64340;48.534;-3.036;2023-07-31T11:06:17;21.90;75.20
75719;DHT22;64340;48.534;-3.036;2023-07-31T11:08:43;21.90;75.20
75719;DHT22;64340;48.534;-3.036;2023-07-31T11:11:10;21.80;75.20
75719;DHT22;64340;48.534;-3.036;2023-07-31T11:13:49;21.70;75.40
75719;DHT22;64340;48.534;-3.036;2023-07-31T11:16:18;21.80;75.40
75719;DHT22;64340;48.534;-3.036;2023-07-31T11:18:46;21.80;75.40
75719;DHT22;64340;48.534;-3.036;2023-07-31T11:21:13;21.80;75.40
75719;DHT22;64340;48.534;-3.036;2023-07-31T11:23:40;21.80;75.30
75719;DHT22;64340;48.534;-3.036;2023-07-31T11:26:07;21.70;75.10
75719;DHT22;64340;48.534;-3.036;2023-07-31T11:28:35;21.80;75.20
75719;DHT22;64340;48.534;-3.036;2023-07-31T11:31:03;21.70;75.30
75719;DHT22;64340;48.534;-3.036;2023-07-31T11:33:30;21.70;75.30
75719;DHT22;64340;48.534;-3.036;2023-07-31T11:35:57;21.70;75.10
75719;DHT22;64340;48.534;-3.036;2023-07-31T11:38:23;21.70;75.00
75719;DHT22;64340;48.534;-3.036;2023-07-31T11:40:52;21.70;75.10
75719;DHT22;64340;48.534;-3.036;2023-07-31T11:43:18;21.70;75.10
75719;DHT22;64340;48.534;-3.036;2023-07-31T11:45:46;21.70;75.20
75719;DHT22;64340;48.534;-3.036;2023-07-31T11:48:25;21.70;75.10
75719;DHT22;64340;48.534;-3.036;2023-07-31T11:50:52;21.70;75.10
75719;DHT22;64340;48.534;-3.036;2023-07-31T11:53:20;21.70;75.10
75719;DHT22;64340;48.534;-3.036;2023-07-31T11:55:49;21.80;74.90
75719;DHT22;64340;48.534;-3.036;2023-07-31T11:58:15;21.70;75.10
75719;DHT22;64340;48.534;-3.036;2023-07-31T12:00:44;21.70;75.30
75719;DHT22;64340;48.534;-3.036;2023-07-31T12:03:10;21.70;75.30
75719;DHT22;64340;48.534;-3.036;2023-07-31T12:05:36;21.70;75.20
75719;DHT22;64340;48.534;-3.036;2023-07-31T12:08:05;21.70;75.20
75719;DHT22;64340;48.534;-3.036;2023-07-31T12:10:37;21.70;75.20
75719;DHT22;64340;48.534;-3.036;2023-07-31T12:13:07;21.70;75.20
75719;DHT22;64340;48.534;-3.036;2023-07-31T12:18:28;21.70;75.30
75719;DHT22;64340;48.534;-3.036;2023-07-31T12:21:01;21.70;75.30
75719;DHT22;64340;48.534;-3.036;2023-07-31T12:36:54;21.80;75.60
75719;DHT22;64340;48.534;-3.036;2023-07-31T12:39:19;21.50;75.70
75719;DHT22;64340;48.534;-3.036;2023-07-31T12:41:45;21.50;75.90
75719;DHT22;64340;48.534;-3.036;2023-07-31T12:44:11;21.50;75.80
75719;DHT22;64340;48.534;-3.036;2023-07-31T12:46:37;21.50;75.90
75719;DHT22;64340;48.534;-3.036;2023-07-31T12:49:02;21.50;75.80
75719;DHT22;64340;48.534;-3.036;2023-07-31T12:51:28;21.50;75.70
75719;DHT22;64340;48.534;-3.036;2023-07-31T12:53:54;21.50;75.60
75719;DHT22;64340;48.534;-3.036;2023-07-31T12:56:20;21.40;75.80
75719;DHT22;64340;48.534;-3.036;2023-07-31T12:58:46;21.40;75.80
75719;DHT22;64340;48.534;-3.036;2023-07-31T13:01:11;21.40;75.80
75719;DHT22;64340;48.534;-3.036;2023-07-31T13:03:37;21.40;75.80
75719;DHT22;64340;48.534;-3.036;2023-07-31T13:06:03;21.40;75.70
75719;DHT22;64340;48.534;-3.036;2023-07-31T13:08:29;21.50;75.50
75719;DHT22;64340;48.534;-3.036;2023-07-31T13:10:55;21.50;75.40
75719;DHT22;64340;48.534;-3.036;2023-07-31T13:13:20;21.50;75.30
75719;DHT22;64340;48.534;-3.036;2023-07-31T13:15:47;21.50;75.30
75719;DHT22;64340;48.534;-3.036;2023-07-31T13:18:21;21.50;75.50
75719;DHT22;64340;48.534;-3.036;2023-07-31T13:21:10;21.40;75.50
75719;DHT22;64340;48.534;-3.036;2023-07-31T13:23:36;21.50;75.60
75719;DHT22;64340;48.534;-3.036;2023-07-31T13:28:48;21.50;75.30
75719;DHT22;64340;48.534;-3.036;2023-07-31T13:31:17;21.50;75.20
75719;DHT22;64340;48.534;-3.036;2023-07-31T13:33:57;21.50;75.50
75719;DHT22;64340;48.534;-3.036;2023-07-31T13:36:31;21.50;75.30
75719;DHT22;64340;48.534;-3.036;2023-07-31T13:38:59;21.50;75.30
75719;DHT22;64340;48.534;-3.036;2023-07-31T13:41:34;21.50;75.70
75719;DHT22;64340;48.534;-3.036;2023-07-31T13:44:03;21.40;76.90
75719;DHT22;64340;48.534;-3.036;2023-07-31T13:46:32;21.50;78.30
75719;DHT22;64340;48.534;-3.036;2023-07-31T13:49:06;21.50;77.80
75719;DHT22;64340;48.534;-3.036;2023-07-31T13:51:35;21.50;76.80
75719;DHT22;64340;48.534;-3.036;2023-07-31T13:54:04;21.50;76.30
75719;DHT22;64340;48.534;-3.036;2023-07-31T13:56:36;21.60;76.00
75719;DHT22;64340;48.534;-3.036;2023-07-31T13:59:05;21.50;76.40
75719;DHT22;64340;48.534;-3.036;2023-07-31T14:01:34;21.50;75.90
75719;DHT22;64340;48.534;-3.036;2023-07-31T14:04:07;21.50;76.50
75719;DHT22;64340;48.534;-3.036;2023-07-31T14:06:55;21.50;76.60
75719;DHT22;64340;48.534;-3.036;2023-07-31T14:09:28;21.50;77.00
75719;DHT22;64340;48.534;-3.036;2023-07-31T14:12:05;21.70;75.90
75719;DHT22;64340;48.534;-3.036;2023-07-31T14:14:35;21.70;75.70
75719;DHT22;64340;48.534;-3.036;2023-07-31T14:17:18;21.50;76.60
75719;DHT22;64340;48.534;-3.036;2023-07-31T14:19:55;21.50;77.30
75719;DHT22;64340;48.534;-3.036;2023-07-31T14:22:30;21.40;78.10
75719;DHT22;64340;48.534;-3.036;2023-07-31T14:24:58;21.40;78.10
75719;DHT22;64340;48.534;-3.036;2023-07-31T14:27:26;21.40;78.10
75719;DHT22;64340;48.534;-3.036;2023-07-31T14:29:52;21.40;77.80
75719;DHT22;64340;48.534;-3.036;2023-07-31T14:32:29;21.40;77.70
75719;DHT22;64340;48.534;-3.036;2023-07-31T14:35:02;21.40;77.70
75719;DHT22;64340;48.534;-3.036;2023-07-31T14:37:50;21.40;77.60
75719;DHT22;64340;48.534;-3.036;2023-07-31T14:40:18;21.50;77.20
75719;DHT22;64340;48.534;-3.036;2023-07-31T14:42:51;21.50;77.00
75719;DHT22;64340;48.534;-3.036;2023-07-31T14:45:25;21.50;77.00
75719;DHT22;64340;48.534;-3.036;2023-07-31T14:47:55;21.50;77.10
75719;DHT22;64340;48.534;-3.036;2023-07-31T14:50:21;21.40;77.20
75719;DHT22;64340;48.534;-3.036;2023-07-31T14:52:56;21.40;77.10
75719;DHT22;64340;48.534;-3.036;2023-07-31T14:55:30;21.40;77.00
75719;DHT22;64340;48.534;-3.036;2023-07-31T14:57:57;21.40;77.00
75719;DHT22;64340;48.534;-3.036;2023-07-31T15:00:26;21.40;77.00
75719;DHT22;64340;48.534;-3.036;2023-07-31T15:02:58;21.40;76.90
75719;DHT22;64340;48.534;-3.036;2023-07-31T15:05:27;21.40;76.90
75719;DHT22;64340;48.534;-3.036;2023-07-31T15:08:04;21.40;76.90
75719;DHT22;64340;48.534;-3.036;2023-07-31T15:10:30;21.40;76.90
75719;DHT22;64340;48.534;-3.036;2023-07-31T15:12:57;21.40;76.80
75719;DHT22;64340;48.534;-3.036;2023-07-31T15:15:22;21.40;76.90
75719;DHT22;64340;48.534;-3.036;2023-07-31T15:17:49;21.40;76.80
75719;DHT22;64340;48.534;-3.036;2023-07-31T15:20:15;21.40;76.70
75719;DHT22;64340;48.534;-3.036;2023-07-31T15:22:41;21.40;76.90
75719;DHT22;64340;48.534;-3.036;2023-07-31T15:25:07;21.40;76.80
75719;DHT22;64340;48.534;-3.036;2023-07-31T15:27:33;21.40;76.80
75719;DHT22;64340;48.534;-3.036;2023-07-31T15:29:59;21.40;76.90
75719;DHT22;64340;48.534;-3.036;2023-07-31T15:32:24;21.40;76.90
75719;DHT22;64340;48.534;-3.036;2023-07-31T15:34:50;21.40;76.90
75719;DHT22;64340;48.534;-3.036;2023-07-31T15:37:16;21.40;76.90
75719;DHT22;64340;48.534;-3.036;2023-07-31T15:39:43;21.40;77.00
75719;DHT22;64340;48.534;-3.036;2023-07-31T15:42:08;21.40;77.00
75719;DHT22;64340;48.534;-3.036;2023-07-31T15:44:34;21.40;77.00
75719;DHT22;64340;48.534;-3.036;2023-07-31T15:47:00;21.40;77.00
75719;DHT22;64340;48.534;-3.036;2023-07-31T15:49:25;21.40;77.00